createdAt,value
2022-10-22T00:03:35.240Z,11.40
2022-10-22T00:08:38.449Z,11.69
2022-10-22T00:13:42.272Z,12.87
2022-10-22T00:18:45.181Z,13.07
2022-10-22T00:23:47.981Z,11.66
2022-10-22T00:28:51.094Z,12.60
2022-10-22T00:33:53.903Z,13.45
2022-10-22T00:38:56.693Z,12.27
2022-10-22T00:44:04.825Z,11.54
2022-10-22T00:49:07.624Z,12.94
2022-10-22T00:54:10.977Z,13.27
2022-10-22T00:59:17.018Z,11.61
2022-10-22T01:04:21.126Z,11.85
2022-10-22T01:09:44.850Z,12.97
2022-10-22T01:15:21.946Z,12.83
2022-10-22T01:20:31.097Z,11.69
2022-10-22T01:26:04.209Z,12.81
2022-10-22T01:31:09.980Z,13.18
2022-10-22T01:36:14.423Z,11.75
2022-10-22T01:41:17.427Z,12.14
2022-10-22T01:46:22.891Z,13.26
2022-10-22T01:51:40.132Z,12.97
2022-10-22T01:57:25.840Z,11.84
2022-10-22T02:02:34.870Z,13.10
2022-10-22T02:07:43.940Z,13.66
2022-10-22T02:12:52.320Z,12.50
2022-10-22T02:17:58.756Z,11.59
2022-10-22T02:23:02.416Z,12.53
2022-10-22T02:28:33.646Z,12.93
2022-10-22T02:33:41.750Z,13.15
2022-10-22T02:38:47.034Z,13.31
2022-10-22T02:43:53.728Z,13.47
2022-10-22T02:48:56.529Z,13.04
2022-10-22T02:53:59.328Z,11.59
2022-10-22T02:59:02.133Z,12.50
2022-10-22T03:04:05.323Z,13.16
2022-10-22T03:09:08.186Z,13.56
2022-10-22T03:14:10.969Z,13.38
2022-10-22T03:19:13.849Z,12.28
2022-10-22T03:24:27.676Z,13.19
2022-10-22T03:29:34.362Z,13.71
2022-10-22T03:34:37.206Z,13.64
2022-10-22T03:39:40.853Z,12.15
2022-10-22T03:44:43.934Z,12.72
2022-10-22T03:49:46.742Z,13.25
2022-10-22T03:54:50.050Z,13.59
2022-10-22T03:59:52.957Z,13.78
2022-10-22T04:04:55.858Z,13.43
2022-10-22T04:09:58.660Z,12.30
2022-10-22T04:15:01.467Z,13.07
2022-10-22T04:20:05.459Z,13.54
2022-10-22T04:25:09.118Z,13.86
2022-10-22T04:30:12.997Z,14.05
2022-10-22T04:35:15.932Z,13.14
2022-10-22T04:40:18.704Z,11.71
2022-10-22T04:45:21.549Z,12.88
2022-10-22T04:50:24.455Z,13.92
2022-10-22T04:55:27.376Z,14.31
2022-10-22T05:00:30.364Z,13.57
2022-10-22T05:05:33.373Z,12.42
2022-10-22T05:10:36.174Z,13.31
2022-10-22T05:15:38.974Z,13.89
2022-10-22T05:20:42.634Z,14.25
2022-10-22T05:25:45.399Z,14.70
2022-10-22T05:31:00.012Z,14.36
2022-10-22T05:36:05.911Z,12.75
2022-10-22T05:41:16.123Z,13.42
2022-10-22T05:46:22.877Z,13.99
2022-10-22T05:51:28.179Z,14.49
2022-10-22T05:56:32.233Z,14.75
2022-10-22T06:01:36.142Z,14.76
2022-10-22T06:06:48.054Z,13.37
2022-10-22T06:11:52.047Z,13.12
2022-10-22T06:16:55.896Z,14.44
2022-10-22T06:21:59.121Z,15.04
2022-10-22T06:27:02.029Z,15.45
2022-10-22T06:32:05.714Z,14.10
2022-10-22T06:37:10.435Z,13.30
2022-10-22T06:42:13.296Z,14.80
2022-10-22T06:47:16.311Z,15.71
2022-10-22T06:52:19.412Z,15.62
2022-10-22T06:57:22.316Z,13.98
2022-10-22T07:02:25.117Z,12.91
2022-10-22T07:07:27.922Z,13.00
2022-10-22T07:12:30.723Z,14.68
2022-10-22T07:17:33.772Z,15.58
2022-10-22T07:22:36.741Z,16.18
2022-10-22T07:27:39.712Z,16.17
2022-10-22T07:32:42.748Z,14.62
2022-10-22T07:37:45.550Z,13.59
2022-10-22T07:42:48.562Z,13.84
2022-10-22T07:47:51.361Z,15.73
2022-10-22T07:52:56.087Z,16.67
2022-10-22T07:58:01.757Z,17.19
2022-10-22T08:03:05.088Z,16.45
2022-10-22T08:08:07.892Z,14.90
2022-10-22T08:13:11.207Z,16.15
2022-10-22T08:18:14.500Z,17.01
2022-10-22T08:23:17.321Z,16.29
2022-10-22T08:28:22.057Z,15.27
2022-10-22T08:33:25.384Z,16.29
2022-10-22T08:38:29.105Z,16.83
2022-10-22T08:43:47.366Z,16.81
2022-10-22T08:48:54.414Z,15.01
2022-10-22T08:54:29.635Z,15.51
2022-10-22T08:59:55.578Z,16.30
2022-10-22T09:05:25.419Z,16.54
2022-10-22T09:10:36.916Z,16.88
2022-10-22T09:15:41.660Z,17.24
2022-10-22T09:20:51.022Z,17.52
2022-10-22T09:25:55.562Z,16.44
2022-10-22T09:36:08.025Z,16.19
2022-10-22T09:41:10.930Z,16.84
2022-10-22T09:46:27.453Z,17.16
2022-10-22T09:51:46.460Z,16.89
2022-10-22T09:56:54.561Z,15.22
2022-10-22T10:02:37.453Z,15.07
2022-10-22T10:07:41.901Z,16.76
2022-10-22T10:12:54.067Z,17.35
2022-10-22T10:18:08.745Z,17.77
2022-10-22T10:23:44.319Z,17.27
2022-10-22T10:28:59.406Z,16.23
2022-10-22T10:34:08.045Z,17.21
2022-10-22T10:39:25.594Z,17.84
2022-10-22T10:44:55.329Z,18.09
2022-10-22T10:50:17.481Z,17.49
2022-10-22T10:56:07.183Z,16.02
2022-10-22T11:01:10.089Z,17.06
2022-10-22T11:06:19.399Z,17.54
2022-10-22T11:11:42.007Z,17.56
2022-10-22T11:16:53.843Z,17.84
2022-10-22T11:22:06.452Z,18.07
2022-10-22T11:27:21.644Z,17.92
2022-10-22T11:32:26.704Z,16.12
2022-10-22T11:37:39.097Z,16.02
2022-10-22T11:42:57.818Z,17.18
2022-10-22T11:48:12.691Z,17.25
2022-10-22T11:53:19.285Z,17.60
2022-10-22T11:58:28.434Z,17.81
2022-10-22T12:03:31.242Z,17.81
2022-10-22T12:08:34.734Z,17.81
2022-10-22T12:13:58.951Z,17.85
2022-10-22T12:19:32.885Z,17.83
2022-10-22T12:24:40.811Z,17.82
2022-10-22T12:29:43.605Z,17.85
2022-10-22T12:34:52.492Z,17.95
2022-10-22T12:39:55.457Z,17.94
2022-10-22T12:44:58.260Z,18.01
2022-10-22T12:50:04.004Z,18.18
2022-10-22T12:55:10.382Z,18.33
2022-10-22T13:00:25.583Z,18.30
2022-10-22T13:05:38.981Z,18.45
2022-10-22T13:10:49.131Z,18.43
2022-10-22T13:15:51.832Z,18.38
2022-10-22T13:20:57.443Z,18.35
2022-10-22T13:26:15.165Z,18.10
2022-10-22T13:31:27.714Z,18.09
2022-10-22T13:36:30.518Z,17.91
2022-10-22T13:46:43.643Z,18.05
2022-10-22T13:51:47.349Z,18.07
2022-10-22T13:56:50.501Z,18.11
2022-10-22T14:01:54.957Z,18.06
2022-10-22T14:06:59.963Z,18.17
2022-10-22T14:12:17.231Z,18.32
2022-10-22T14:17:20.545Z,18.33
2022-10-22T14:22:26.929Z,18.27
2022-10-22T14:27:30.241Z,18.30
2022-10-22T14:32:33.043Z,18.37
2022-10-22T14:37:35.861Z,18.41
2022-10-22T14:42:43.807Z,18.30
2022-10-22T14:47:47.818Z,18.25
2022-10-22T14:52:51.773Z,18.31
2022-10-22T14:57:55.240Z,18.40
2022-10-22T15:03:03.308Z,18.36
2022-10-22T15:08:07.231Z,18.37
2022-10-22T15:13:10.106Z,18.32
2022-10-22T15:18:13.008Z,18.26
2022-10-22T15:23:15.917Z,18.20
2022-10-22T15:28:18.917Z,18.15
2022-10-22T15:33:21.819Z,18.11
2022-10-22T15:43:34.059Z,18.06
2022-10-22T15:48:36.983Z,18.10
2022-10-22T15:53:40.579Z,18.05
2022-10-22T15:58:43.816Z,18.14
2022-10-22T16:03:46.827Z,18.27
2022-10-22T16:08:49.743Z,18.21
2022-10-22T16:13:57.047Z,18.21
2022-10-22T16:19:00.042Z,18.17
2022-10-22T16:24:06.142Z,18.16
2022-10-22T16:29:11.685Z,18.11
2022-10-22T16:34:14.896Z,18.28
2022-10-22T16:39:17.805Z,18.37
2022-10-22T16:44:20.707Z,18.38
2022-10-22T16:49:23.817Z,18.44
2022-10-22T16:54:26.720Z,18.59
2022-10-22T16:59:29.519Z,18.37
2022-10-22T17:04:33.959Z,18.42
2022-10-22T17:09:36.761Z,18.35
2022-10-22T17:14:39.666Z,18.36
2022-10-22T17:19:42.570Z,18.49
2022-10-22T17:24:45.371Z,18.66
2022-10-22T17:29:48.276Z,18.72
2022-10-22T17:34:51.179Z,18.63
2022-10-22T17:39:53.984Z,18.60
2022-10-22T17:44:57.604Z,18.69
2022-10-22T17:50:00.630Z,18.60
2022-10-22T17:55:04.269Z,18.61
2022-10-22T18:00:08.584Z,18.56
2022-10-22T18:05:12.803Z,18.64
2022-10-22T18:10:15.706Z,18.65
2022-10-22T18:15:18.611Z,18.68
2022-10-22T18:20:21.827Z,18.65
2022-10-22T18:25:24.760Z,18.67
2022-10-22T18:30:27.733Z,18.60
2022-10-22T18:35:32.546Z,18.60
2022-10-22T18:40:36.249Z,18.61
2022-10-22T18:45:47.095Z,18.67
2022-10-22T18:51:00.138Z,18.79
2022-10-22T18:56:07.952Z,18.98
2022-10-22T19:01:13.454Z,19.07
2022-10-22T19:06:24.618Z,19.10
2022-10-22T19:11:27.937Z,19.06
2022-10-22T19:16:30.836Z,19.03
2022-10-22T19:21:35.687Z,18.98
2022-10-22T19:26:39.103Z,18.97
2022-10-22T19:31:42.620Z,19.06
2022-10-22T19:36:45.521Z,19.15
2022-10-22T19:41:48.638Z,19.16
2022-10-22T19:46:51.541Z,19.26
2022-10-22T19:51:54.304Z,19.35
2022-10-22T19:56:57.183Z,19.41
2022-10-22T20:02:00.904Z,19.35
2022-10-22T20:07:04.588Z,19.31
2022-10-22T20:12:07.598Z,19.41
2022-10-22T20:17:10.601Z,19.45
2022-10-22T20:22:16.297Z,19.49
2022-10-22T20:27:21.734Z,19.49
2022-10-22T20:32:27.205Z,19.40
2022-10-22T20:37:30.004Z,19.45
2022-10-22T20:42:34.236Z,19.49
2022-10-22T20:47:50.865Z,19.49
2022-10-22T20:52:54.689Z,19.39
2022-10-22T20:57:58.000Z,19.43
2022-10-22T21:03:00.807Z,19.44
2022-10-22T21:08:05.242Z,19.40
2022-10-22T21:13:08.557Z,19.36
2022-10-22T21:18:11.459Z,19.42
2022-10-22T21:23:14.263Z,19.54
2022-10-22T21:28:17.094Z,19.56
2022-10-22T21:33:20.765Z,19.62
2022-10-22T21:38:25.190Z,19.66
2022-10-22T21:43:28.031Z,19.62
2022-10-22T21:48:31.037Z,19.50
2022-10-22T21:53:34.693Z,19.55
2022-10-22T21:58:37.765Z,19.40
2022-10-22T22:03:48.356Z,19.56
2022-10-22T22:08:53.510Z,19.59
2022-10-22T22:13:57.923Z,19.70
2022-10-22T22:19:07.407Z,19.70
2022-10-22T22:24:11.850Z,19.62
2022-10-22T22:29:14.647Z,19.65
2022-10-22T22:34:18.153Z,19.74
2022-10-22T22:39:23.806Z,19.80
2022-10-22T22:44:26.591Z,19.90
2022-10-22T22:49:29.399Z,19.99
2022-10-22T22:54:32.339Z,19.87
2022-10-22T22:59:35.142Z,19.85
2022-10-22T23:04:37.944Z,19.72
2022-10-22T23:09:40.849Z,19.59
2022-10-22T23:14:43.963Z,19.39
2022-10-22T23:19:46.861Z,19.40
2022-10-22T23:24:49.764Z,19.36
2022-10-22T23:29:52.477Z,19.24
2022-10-22T23:34:55.371Z,19.08
2022-10-22T23:39:58.109Z,19.01
2022-10-22T23:45:00.970Z,19.05
2022-10-22T23:50:04.082Z,19.14
2022-10-22T23:55:07.862Z,19.07
